Terminal Aerodrome Forecast
Issued by NWS Jackson, KY

Home | Current Version | Previous Version | Text Only | Print | Product List | Glossary On
Versions: 1 2 3 4 5 6 7 8 9 10 11 12 13 14 15 16 17 18
000
FTUS43 KJKL 211700
TAFLOZ
TAF
KLOZ 211736Z 2118/2218 32006KT P6SM SCT035 BKN050
     FM220000 00000KT P6SM FEW030 SCT050
     FM220900 36003KT 4SM BR BKN050
     FM221300 36005KT P6SM BKN050=

USA.gov is the U.S. government's official web portal to all federal, state and local government web resources and services.